sensor_id;sensor_type;location;lat;lon;timestamp;P1;P2;P0
57049;PMS7003;42935;50.966;16.992;2023-05-29T00:02:52;8;7;5
57049;PMS7003;42935;50.966;16.992;2023-05-29T00:06:10;8;5;4
57049;PMS7003;42935;50.966;16.992;2023-05-29T00:09:28;12;7;5
57049;PMS7003;42935;50.966;16.992;2023-05-29T00:12:45;13;7;6
57049;PMS7003;42935;50.966;16.992;2023-05-29T00:16:02;11;7;4
57049;PMS7003;42935;50.966;16.992;2023-05-29T00:19:21;8;5;5
57049;PMS7003;42935;50.966;16.992;2023-05-29T00:22:41;6;4;3
57049;PMS7003;42935;50.966;16.992;2023-05-29T00:25:58;5;5;4
57049;PMS7003;42935;50.966;16.992;2023-05-29T00:29:19;9;5;4
57049;PMS7003;42935;50.966;16.992;2023-05-29T00:32:35;8;6;4
57049;PMS7003;42935;50.966;16.992;2023-05-29T00:35:48;7;5;4
57049;PMS7003;42935;50.966;16.992;2023-05-29T00:39:06;7;5;4
57049;PMS7003;42935;50.966;16.992;2023-05-29T00:42:26;6;4;3
57049;PMS7003;42935;50.966;16.992;2023-05-29T00:45:43;9;7;6
57049;PMS7003;42935;50.966;16.992;2023-05-29T00:49:00;6;5;4
57049;PMS7003;42935;50.966;16.992;2023-05-29T00:52:20;8;6;4
57049;PMS7003;42935;50.966;16.992;2023-05-29T00:55:35;11;6;4
57049;PMS7003;42935;50.966;16.992;2023-05-29T00:58:53;8;7;5
57049;PMS7003;42935;50.966;16.992;2023-05-29T01:02:11;11;6;5
57049;PMS7003;42935;50.966;16.992;2023-05-29T01:05:33;6;6;5
57049;PMS7003;42935;50.966;16.992;2023-05-29T01:08:51;9;7;5
57049;PMS7003;42935;50.966;16.992;2023-05-29T01:19:10;8;5;4
57049;PMS7003;42935;50.966;16.992;2023-05-29T01:22:35;9;5;4
57049;PMS7003;42935;50.966;16.992;2023-05-29T01:29:26;8;6;5
57049;PMS7003;42935;50.966;16.992;2023-05-29T01:32:48;9;5;4
57049;PMS7003;42935;50.966;16.992;2023-05-29T01:36:08;10;4;4
57049;PMS7003;42935;50.966;16.992;2023-05-29T01:39:26;11;6;5
57049;PMS7003;42935;50.966;16.992;2023-05-29T01:42:44;8;5;4
57049;PMS7003;42935;50.966;16.992;2023-05-29T01:46:01;10;6;5
57049;PMS7003;42935;50.966;16.992;2023-05-29T01:49:19;10;7;5
57049;PMS7003;42935;50.966;16.992;2023-05-29T01:52:35;9;5;4
57049;PMS7003;42935;50.966;16.992;2023-05-29T01:55:53;11;5;4
57049;PMS7003;42935;50.966;16.992;2023-05-29T01:59:06;8;6;5
57049;PMS7003;42935;50.966;16.992;2023-05-29T02:02:29;9;7;4
57049;PMS7003;42935;50.966;16.992;2023-05-29T02:05:47;8;6;5
57049;PMS7003;42935;50.966;16.992;2023-05-29T02:09:04;8;5;4
57049;PMS7003;42935;50.966;16.992;2023-05-29T02:12:19;13;8;5
57049;PMS7003;42935;50.966;16.992;2023-05-29T02:15:36;6;5;4
57049;PMS7003;42935;50.966;16.992;2023-05-29T02:18:50;9;7;5
57049;PMS7003;42935;50.966;16.992;2023-05-29T02:22:38;16;10;7
57049;PMS7003;42935;50.966;16.992;2023-05-29T02:25:58;11;7;6
57049;PMS7003;42935;50.966;16.992;2023-05-29T02:29:15;12;8;5
57049;PMS7003;42935;50.966;16.992;2023-05-29T02:32:33;11;7;5
57049;PMS7003;42935;50.966;16.992;2023-05-29T02:35:56;10;7;5
57049;PMS7003;42935;50.966;16.992;2023-05-29T02:39:11;10;6;4
57049;PMS7003;42935;50.966;16.992;2023-05-29T02:42:28;12;7;5
57049;PMS7003;42935;50.966;16.992;2023-05-29T02:45:46;7;7;5
57049;PMS7003;42935;50.966;16.992;2023-05-29T02:49:05;8;6;4
57049;PMS7003;42935;50.966;16.992;2023-05-29T02:52:18;9;7;5
57049;PMS7003;42935;50.966;16.992;2023-05-29T02:55:35;12;9;7
57049;PMS7003;42935;50.966;16.992;2023-05-29T02:58:53;9;7;6
57049;PMS7003;42935;50.966;16.992;2023-05-29T03:02:11;13;8;6
57049;PMS7003;42935;50.966;16.992;2023-05-29T03:05:24;8;6;6
57049;PMS7003;42935;50.966;16.992;2023-05-29T03:08:41;11;9;7
57049;PMS7003;42935;50.966;16.992;2023-05-29T03:12:02;17;10;6
57049;PMS7003;42935;50.966;16.992;2023-05-29T03:15:21;13;8;4
57049;PMS7003;42935;50.966;16.992;2023-05-29T03:18:38;10;9;6
57049;PMS7003;42935;50.966;16.992;2023-05-29T03:21:56;10;8;5
57049;PMS7003;42935;50.966;16.992;2023-05-29T03:25:12;11;9;6
57049;PMS7003;42935;50.966;16.992;2023-05-29T03:28:31;14;6;5
57049;PMS7003;42935;50.966;16.992;2023-05-29T03:31:49;10;9;6
57049;PMS7003;42935;50.966;16.992;2023-05-29T03:35:01;10;7;5
57049;PMS7003;42935;50.966;16.992;2023-05-29T03:38:16;11;6;5
57049;PMS7003;42935;50.966;16.992;2023-05-29T03:41:33;9;8;6
57049;PMS7003;42935;50.966;16.992;2023-05-29T03:44:50;12;7;7
57049;PMS7003;42935;50.966;16.992;2023-05-29T03:48:07;9;7;5
57049;PMS7003;42935;50.966;16.992;2023-05-29T03:51:25;14;7;5
57049;PMS7003;42935;50.966;16.992;2023-05-29T03:54:43;18;10;7
57049;PMS7003;42935;50.966;16.992;2023-05-29T03:57:56;19;9;7
57049;PMS7003;42935;50.966;16.992;2023-05-29T04:01:15;13;9;7
57049;PMS7003;42935;50.966;16.992;2023-05-29T04:04:32;13;9;7
57049;PMS7003;42935;50.966;16.992;2023-05-29T04:07:51;12;9;7
57049;PMS7003;42935;50.966;16.992;2023-05-29T04:11:20;15;7;5
57049;PMS7003;42935;50.966;16.992;2023-05-29T04:14:58;18;10;8
57049;PMS7003;42935;50.966;16.992;2023-05-29T04:18:15;15;12;8
57049;PMS7003;42935;50.966;16.992;2023-05-29T04:21:33;12;8;6
57049;PMS7003;42935;50.966;16.992;2023-05-29T04:24:54;11;8;6
57049;PMS7003;42935;50.966;16.992;2023-05-29T04:28:12;15;11;7
57049;PMS7003;42935;50.966;16.992;2023-05-29T04:31:30;13;11;8
57049;PMS7003;42935;50.966;16.992;2023-05-29T04:34:49;14;10;7
57049;PMS7003;42935;50.966;16.992;2023-05-29T04:38:06;13;10;8
57049;PMS7003;42935;50.966;16.992;2023-05-29T04:41:23;14;11;9
57049;PMS7003;42935;50.966;16.992;2023-05-29T04:44:46;13;9;6
57049;PMS7003;42935;50.966;16.992;2023-05-29T04:48:04;19;12;8
57049;PMS7003;42935;50.966;16.992;2023-05-29T04:51:23;19;12;8
57049;PMS7003;42935;50.966;16.992;2023-05-29T04:54:35;12;12;8
57049;PMS7003;42935;50.966;16.992;2023-05-29T04:57:53;18;12;8
57049;PMS7003;42935;50.966;16.992;2023-05-29T05:01:08;18;10;9
57049;PMS7003;42935;50.966;16.992;2023-05-29T05:04:27;13;10;8
57049;PMS7003;42935;50.966;16.992;2023-05-29T05:07:46;13;10;7
57049;PMS7003;42935;50.966;16.992;2023-05-29T05:11:04;18;9;6
57049;PMS7003;42935;50.966;16.992;2023-05-29T05:14:22;15;12;8
57049;PMS7003;42935;50.966;16.992;2023-05-29T05:17:40;19;13;10
57049;PMS7003;42935;50.966;16.992;2023-05-29T05:21:02;20;11;8
57049;PMS7003;42935;50.966;16.992;2023-05-29T05:24:18;15;12;9
57049;PMS7003;42935;50.966;16.992;2023-05-29T05:27:35;16;13;11
57049;PMS7003;42935;50.966;16.992;2023-05-29T05:30:55;16;13;10
57049;PMS7003;42935;50.966;16.992;2023-05-29T05:34:17;15;12;9
57049;PMS7003;42935;50.966;16.992;2023-05-29T05:37:35;17;15;10
57049;PMS7003;42935;50.966;16.992;2023-05-29T05:40:53;15;13;9
57049;PMS7003;42935;50.966;16.992;2023-05-29T05:44:10;17;13;10
57049;PMS7003;42935;50.966;16.992;2023-05-29T05:47:28;20;15;10
57049;PMS7003;42935;50.966;16.992;2023-05-29T05:50:45;18;13;9
57049;PMS7003;42935;50.966;16.992;2023-05-29T05:54:03;17;13;9
57049;PMS7003;42935;50.966;16.992;2023-05-29T05:57:20;15;12;10
57049;PMS7003;42935;50.966;16.992;2023-05-29T06:00:41;15;13;8
57049;PMS7003;42935;50.966;16.992;2023-05-29T06:03:59;16;13;9
57049;PMS7003;42935;50.966;16.992;2023-05-29T06:07:17;15;11;8
57049;PMS7003;42935;50.966;16.992;2023-05-29T06:10:30;15;12;9
57049;PMS7003;42935;50.966;16.992;2023-05-29T06:13:51;18;13;10
57049;PMS7003;42935;50.966;16.992;2023-05-29T06:17:07;13;10;7
57049;PMS7003;42935;50.966;16.992;2023-05-29T06:20:24;12;10;7
57049;PMS7003;42935;50.966;16.992;2023-05-29T06:23:42;9;9;7
57049;PMS7003;42935;50.966;16.992;2023-05-29T06:27:00;17;12;9
57049;PMS7003;42935;50.966;16.992;2023-05-29T06:30:13;15;11;9
57049;PMS7003;42935;50.966;16.992;2023-05-29T06:33:36;17;13;10
57049;PMS7003;42935;50.966;16.992;2023-05-29T06:36:54;10;10;8
57049;PMS7003;42935;50.966;16.992;2023-05-29T06:40:11;15;11;8
57049;PMS7003;42935;50.966;16.992;2023-05-29T06:43:31;15;13;8
57049;PMS7003;42935;50.966;16.992;2023-05-29T06:46:49;15;11;8
57049;PMS7003;42935;50.966;16.992;2023-05-29T06:50:09;14;12;9
57049;PMS7003;42935;50.966;16.992;2023-05-29T06:53:27;11;9;6
57049;PMS7003;42935;50.966;16.992;2023-05-29T06:56:45;8;7;6
57049;PMS7003;42935;50.966;16.992;2023-05-29T07:00:03;9;9;6
57049;PMS7003;42935;50.966;16.992;2023-05-29T07:03:24;11;9;6
57049;PMS7003;42935;50.966;16.992;2023-05-29T07:06:40;9;7;5
57049;PMS7003;42935;50.966;16.992;2023-05-29T07:09:56;11;7;6
57049;PMS7003;42935;50.966;16.992;2023-05-29T07:13:09;8;7;6
57049;PMS7003;42935;50.966;16.992;2023-05-29T07:16:33;13;8;6
57049;PMS7003;42935;50.966;16.992;2023-05-29T07:19:50;10;9;7
57049;PMS7003;42935;50.966;16.992;2023-05-29T07:23:06;8;8;6
57049;PMS7003;42935;50.966;16.992;2023-05-29T07:26:26;9;7;6
57049;PMS7003;42935;50.966;16.992;2023-05-29T07:29:47;11;8;6
57049;PMS7003;42935;50.966;16.992;2023-05-29T07:33:00;10;7;4
57049;PMS7003;42935;50.966;16.992;2023-05-29T07:36:17;9;8;6
57049;PMS7003;42935;50.966;16.992;2023-05-29T07:39:34;6;6;5
57049;PMS7003;42935;50.966;16.992;2023-05-29T07:42:51;9;7;5
57049;PMS7003;42935;50.966;16.992;2023-05-29T07:46:09;7;6;5
57049;PMS7003;42935;50.966;16.992;2023-05-29T07:49:28;9;6;5
57049;PMS7003;42935;50.966;16.992;2023-05-29T07:52:46;10;7;5
57049;PMS7003;42935;50.966;16.992;2023-05-29T07:55:59;9;5;4
57049;PMS7003;42935;50.966;16.992;2023-05-29T07:59:16;6;5;5
57049;PMS7003;42935;50.966;16.992;2023-05-29T08:02:35;5;4;4
57049;PMS7003;42935;50.966;16.992;2023-05-29T08:05:55;6;5;5
57049;PMS7003;42935;50.966;16.992;2023-05-29T08:09:43;5;4;3
57049;PMS7003;42935;50.966;16.992;2023-05-29T08:12:58;4;4;3
57049;PMS7003;42935;50.966;16.992;2023-05-29T08:16:15;6;4;4
57049;PMS7003;42935;50.966;16.992;2023-05-29T08:19:58;6;4;3
57049;PMS7003;42935;50.966;16.992;2023-05-29T08:23:11;4;3;3
57049;PMS7003;42935;50.966;16.992;2023-05-29T08:26:28;4;3;2
57049;PMS7003;42935;50.966;16.992;2023-05-29T08:29:41;3;2;2
57049;PMS7003;42935;50.966;16.992;2023-05-29T08:32:58;4;3;2
57049;PMS7003;42935;50.966;16.992;2023-05-29T08:36:17;5;3;2
57049;PMS7003;42935;50.966;16.992;2023-05-29T08:40:05;4;2;2
57049;PMS7003;42935;50.966;16.992;2023-05-29T08:43:24;4;3;2
57049;PMS7003;42935;50.966;16.992;2023-05-29T08:46:54;3;3;2
57049;PMS7003;42935;50.966;16.992;2023-05-29T08:50:12;2;2;2
57049;PMS7003;42935;50.966;16.992;2023-05-29T08:53:32;6;2;2
57049;PMS7003;42935;50.966;16.992;2023-05-29T08:56:49;2;2;2
57049;PMS7003;42935;50.966;16.992;2023-05-29T09:00:08;3;3;2
57049;PMS7003;42935;50.966;16.992;2023-05-29T09:03:35;4;3;2
57049;PMS7003;42935;50.966;16.992;2023-05-29T09:06:49;5;2;2
57049;PMS7003;42935;50.966;16.992;2023-05-29T09:10:12;3;2;1
57049;PMS7003;42935;50.966;16.992;2023-05-29T09:13:31;2;2;2
57049;PMS7003;42935;50.966;16.992;2023-05-29T09:16:50;2;2;1
57049;PMS7003;42935;50.966;16.992;2023-05-29T09:23:33;9;4;3
57049;PMS7003;42935;50.966;16.992;2023-05-29T09:26:51;5;3;2
57049;PMS7003;42935;50.966;16.992;2023-05-29T09:33:49;4;2;2
57049;PMS7003;42935;50.966;16.992;2023-05-29T09:37:05;3;1;1
57049;PMS7003;42935;50.966;16.992;2023-05-29T09:40:25;4;1;0
57049;PMS7003;42935;50.966;16.992;2023-05-29T09:43:42;4;2;2
57049;PMS7003;42935;50.966;16.992;2023-05-29T09:47:02;3;2;1
57049;PMS7003;42935;50.966;16.992;2023-05-29T09:50:21;2;2;1
57049;PMS7003;42935;50.966;16.992;2023-05-29T09:53:40;4;2;2
57049;PMS7003;42935;50.966;16.992;2023-05-29T09:56:59;2;1;1
57049;PMS7003;42935;50.966;16.992;2023-05-29T10:00:20;1;1;1
57049;PMS7003;42935;50.966;16.992;2023-05-29T10:03:39;4;3;2
57049;PMS7003;42935;50.966;16.992;2023-05-29T10:07:28;3;2;1
57049;PMS7003;42935;50.966;16.992;2023-05-29T10:10:59;2;2;2
57049;PMS7003;42935;50.966;16.992;2023-05-29T10:14:26;4;2;1
57049;PMS7003;42935;50.966;16.992;2023-05-29T10:21:18;4;3;3
57049;PMS7003;42935;50.966;16.992;2023-05-29T10:24:37;2;1;1
57049;PMS7003;42935;50.966;16.992;2023-05-29T10:27:57;4;3;2
57049;PMS7003;42935;50.966;16.992;2023-05-29T10:31:20;5;3;2
57049;PMS7003;42935;50.966;16.992;2023-05-29T10:34:51;5;3;2
57049;PMS7003;42935;50.966;16.992;2023-05-29T10:38:14;3;2;1
57049;PMS7003;42935;50.966;16.992;2023-05-29T10:41:34;3;2;2
57049;PMS7003;42935;50.966;16.992;2023-05-29T10:44:56;2;2;1
57049;PMS7003;42935;50.966;16.992;2023-05-29T10:51:43;7;4;2
57049;PMS7003;42935;50.966;16.992;2023-05-29T10:55:01;3;3;1
57049;PMS7003;42935;50.966;16.992;2023-05-29T10:58:23;3;2;1
57049;PMS7003;42935;50.966;16.992;2023-05-29T11:01:43;3;3;2
57049;PMS7003;42935;50.966;16.992;2023-05-29T11:15:24;4;4;2
57049;PMS7003;42935;50.966;16.992;2023-05-29T11:18:42;5;3;2
57049;PMS7003;42935;50.966;16.992;2023-05-29T11:22:06;5;2;2
57049;PMS7003;42935;50.966;16.992;2023-05-29T11:25:32;3;3;3
57049;PMS7003;42935;50.966;16.992;2023-05-29T11:28:49;6;3;3
57049;PMS7003;42935;50.966;16.992;2023-05-29T11:32:03;5;3;3
57049;PMS7003;42935;50.966;16.992;2023-05-29T11:35:24;2;2;1
57049;PMS7003;42935;50.966;16.992;2023-05-29T11:38:45;8;3;2
57049;PMS7003;42935;50.966;16.992;2023-05-29T11:42:03;3;2;2
57049;PMS7003;42935;50.966;16.992;2023-05-29T11:45:22;4;3;2
57049;PMS7003;42935;50.966;16.992;2023-05-29T11:55:27;4;3;3
57049;PMS7003;42935;50.966;16.992;2023-05-29T11:58:43;4;4;2
57049;PMS7003;42935;50.966;16.992;2023-05-29T12:02:05;5;4;3
57049;PMS7003;42935;50.966;16.992;2023-05-29T12:05:23;7;4;3
57049;PMS7003;42935;50.966;16.992;2023-05-29T12:08:38;4;3;2
57049;PMS7003;42935;50.966;16.992;2023-05-29T12:15:19;4;3;3
57049;PMS7003;42935;50.966;16.992;2023-05-29T12:18:33;5;3;2
57049;PMS7003;42935;50.966;16.992;2023-05-29T12:21:48;4;4;3
57049;PMS7003;42935;50.966;16.992;2023-05-29T12:25:18;4;4;2
57049;PMS7003;42935;50.966;16.992;2023-05-29T12:28:42;3;3;3
57049;PMS7003;42935;50.966;16.992;2023-05-29T12:32:01;4;4;3
57049;PMS7003;42935;50.966;16.992;2023-05-29T12:35:19;4;4;3
57049;PMS7003;42935;50.966;16.992;2023-05-29T12:42:05;6;4;3
57049;PMS7003;42935;50.966;16.992;2023-05-29T12:45:26;4;4;2
57049;PMS7003;42935;50.966;16.992;2023-05-29T12:48:46;3;3;3
57049;PMS7003;42935;50.966;16.992;2023-05-29T12:52:09;7;4;2
57049;PMS7003;42935;50.966;16.992;2023-05-29T12:55:25;4;3;3
57049;PMS7003;42935;50.966;16.992;2023-05-29T12:58:42;3;3;2
57049;PMS7003;42935;50.966;16.992;2023-05-29T13:01:59;3;3;2
57049;PMS7003;42935;50.966;16.992;2023-05-29T13:05:15;4;4;3
57049;PMS7003;42935;50.966;16.992;2023-05-29T13:08:34;5;3;2
57049;PMS7003;42935;50.966;16.992;2023-05-29T13:11:51;6;3;2
57049;PMS7003;42935;50.966;16.992;2023-05-29T13:15:09;4;4;3
57049;PMS7003;42935;50.966;16.992;2023-05-29T13:18:28;5;3;3
57049;PMS7003;42935;50.966;16.992;2023-05-29T13:24:06;3;3;2
57049;PMS7003;42935;50.966;16.992;2023-05-29T13:27:31;3;3;2
57049;PMS7003;42935;50.966;16.992;2023-05-29T13:30:56;5;3;2
57049;PMS7003;42935;50.966;16.992;2023-05-29T13:34:13;4;3;2
57049;PMS7003;42935;50.966;16.992;2023-05-29T13:37:30;5;4;3
57049;PMS7003;42935;50.966;16.992;2023-05-29T13:40:46;3;3;2
57049;PMS7003;42935;50.966;16.992;2023-05-29T13:44:07;3;3;2
57049;PMS7003;42935;50.966;16.992;2023-05-29T13:47:22;5;4;2
57049;PMS7003;42935;50.966;16.992;2023-05-29T13:50:44;5;3;2
57049;PMS7003;42935;50.966;16.992;2023-05-29T13:54:01;4;3;3
57049;PMS7003;42935;50.966;16.992;2023-05-29T13:57:19;3;3;2
57049;PMS7003;42935;50.966;16.992;2023-05-29T14:00:32;7;4;3
57049;PMS7003;42935;50.966;16.992;2023-05-29T14:03:45;5;3;3
57049;PMS7003;42935;50.966;16.992;2023-05-29T14:07:03;7;4;3
57049;PMS7003;42935;50.966;16.992;2023-05-29T14:10:21;4;3;2
57049;PMS7003;42935;50.966;16.992;2023-05-29T14:13:39;4;3;2
57049;PMS7003;42935;50.966;16.992;2023-05-29T14:16:54;2;2;2
57049;PMS7003;42935;50.966;16.992;2023-05-29T14:20:07;3;3;2
57049;PMS7003;42935;50.966;16.992;2023-05-29T14:23:23;3;3;3
57049;PMS7003;42935;50.966;16.992;2023-05-29T14:26:40;3;3;3
57049;PMS7003;42935;50.966;16.992;2023-05-29T14:29:57;3;3;2
57049;PMS7003;42935;50.966;16.992;2023-05-29T14:33:17;6;4;2
57049;PMS7003;42935;50.966;16.992;2023-05-29T14:36:35;5;3;2
57049;PMS7003;42935;50.966;16.992;2023-05-29T14:39:56;4;4;3
57049;PMS7003;42935;50.966;16.992;2023-05-29T14:43:13;4;4;3
57049;PMS7003;42935;50.966;16.992;2023-05-29T14:46:28;6;4;4
57049;PMS7003;42935;50.966;16.992;2023-05-29T14:49:43;5;4;3
57049;PMS7003;42935;50.966;16.992;2023-05-29T14:53:04;5;5;3
57049;PMS7003;42935;50.966;16.992;2023-05-29T14:56:21;3;2;2
57049;PMS7003;42935;50.966;16.992;2023-05-29T14:59:40;4;4;3
57049;PMS7003;42935;50.966;16.992;2023-05-29T15:02:57;5;4;3
57049;PMS7003;42935;50.966;16.992;2023-05-29T15:06:17;5;4;3
57049;PMS7003;42935;50.966;16.992;2023-05-29T15:09:38;5;4;3
57049;PMS7003;42935;50.966;16.992;2023-05-29T15:12:55;5;3;3
57049;PMS7003;42935;50.966;16.992;2023-05-29T15:16:08;4;3;2
57049;PMS7003;42935;50.966;16.992;2023-05-29T15:19:21;7;4;2
57049;PMS7003;42935;50.966;16.992;2023-05-29T15:23:07;4;4;4
57049;PMS7003;42935;50.966;16.992;2023-05-29T15:26:23;4;3;3
57049;PMS7003;42935;50.966;16.992;2023-05-29T15:29:41;4;4;3
57049;PMS7003;42935;50.966;16.992;2023-05-29T15:32:54;5;5;4
57049;PMS7003;42935;50.966;16.992;2023-05-29T15:36:15;5;4;3
57049;PMS7003;42935;50.966;16.992;2023-05-29T15:39:36;6;4;3
57049;PMS7003;42935;50.966;16.992;2023-05-29T15:42:54;4;4;2
57049;PMS7003;42935;50.966;16.992;2023-05-29T15:46:13;6;4;4
57049;PMS7003;42935;50.966;16.992;2023-05-29T15:49:31;7;5;4
57049;PMS7003;42935;50.966;16.992;2023-05-29T15:52:42;4;4;3
57049;PMS7003;42935;50.966;16.992;2023-05-29T15:55:59;7;4;4
57049;PMS7003;42935;50.966;16.992;2023-05-29T15:59:16;5;4;3
57049;PMS7003;42935;50.966;16.992;2023-05-29T16:02:33;7;6;5
57049;PMS7003;42935;50.966;16.992;2023-05-29T16:05:46;10;6;4
57049;PMS7003;42935;50.966;16.992;2023-05-29T16:09:01;10;8;6
57049;PMS7003;42935;50.966;16.992;2023-05-29T16:12:26;9;9;7
57049;PMS7003;42935;50.966;16.992;2023-05-29T16:15:49;13;10;7
57049;PMS7003;42935;50.966;16.992;2023-05-29T16:19:10;5;5;4
57049;PMS7003;42935;50.966;16.992;2023-05-29T16:22:27;8;7;6
57049;PMS7003;42935;50.966;16.992;2023-05-29T16:25:49;8;6;5
57049;PMS7003;42935;50.966;16.992;2023-05-29T16:29:04;14;8;6
57049;PMS7003;42935;50.966;16.992;2023-05-29T16:32:17;7;5;4
57049;PMS7003;42935;50.966;16.992;2023-05-29T16:35:39;12;9;6
57049;PMS7003;42935;50.966;16.992;2023-05-29T16:38:59;6;5;4
57049;PMS7003;42935;50.966;16.992;2023-05-29T16:42:10;6;6;4
57049;PMS7003;42935;50.966;16.992;2023-05-29T16:45:29;8;6;5
57049;PMS7003;42935;50.966;16.992;2023-05-29T16:48:42;11;6;4
57049;PMS7003;42935;50.966;16.992;2023-05-29T16:51:56;7;6;5
57049;PMS7003;42935;50.966;16.992;2023-05-29T16:55:13;8;7;5
57049;PMS7003;42935;50.966;16.992;2023-05-29T16:58:30;9;7;6
57049;PMS7003;42935;50.966;16.992;2023-05-29T17:01:47;12;10;7
57049;PMS7003;42935;50.966;16.992;2023-05-29T17:05:08;38;32;20
57049;PMS7003;42935;50.966;16.992;2023-05-29T17:08:59;33;26;17
57049;PMS7003;42935;50.966;16.992;2023-05-29T17:12:20;13;10;7
57049;PMS7003;42935;50.966;16.992;2023-05-29T17:15:41;12;11;8
57049;PMS7003;42935;50.966;16.992;2023-05-29T17:18:57;9;6;5
57049;PMS7003;42935;50.966;16.992;2023-05-29T17:22:10;7;7;5
57049;PMS7003;42935;50.966;16.992;2023-05-29T17:25:23;14;9;7
57049;PMS7003;42935;50.966;16.992;2023-05-29T17:28:40;7;5;4
57049;PMS7003;42935;50.966;16.992;2023-05-29T17:32:29;13;12;9
57049;PMS7003;42935;50.966;16.992;2023-05-29T17:35:46;8;7;6
57049;PMS7003;42935;50.966;16.992;2023-05-29T17:38:59;7;6;4
57049;PMS7003;42935;50.966;16.992;2023-05-29T17:42:18;12;9;6
57049;PMS7003;42935;50.966;16.992;2023-05-29T17:45:31;12;10;7
57049;PMS7003;42935;50.966;16.992;2023-05-29T17:48:50;13;10;7
57049;PMS7003;42935;50.966;16.992;2023-05-29T17:52:07;8;8;6
57049;PMS7003;42935;50.966;16.992;2023-05-29T17:55:20;7;6;4
57049;PMS7003;42935;50.966;16.992;2023-05-29T17:58:38;10;6;4
57049;PMS7003;42935;50.966;16.992;2023-05-29T18:01:55;13;9;7
57049;PMS7003;42935;50.966;16.992;2023-05-29T18:05:11;8;6;5
57049;PMS7003;42935;50.966;16.992;2023-05-29T18:08:29;12;9;6
57049;PMS7003;42935;50.966;16.992;2023-05-29T18:11:52;38;27;16
57049;PMS7003;42935;50.966;16.992;2023-05-29T18:15:10;29;22;14
57049;PMS7003;42935;50.966;16.992;2023-05-29T18:18:29;19;16;10
57049;PMS7003;42935;50.966;16.992;2023-05-29T18:21:53;21;15;11
57049;PMS7003;42935;50.966;16.992;2023-05-29T18:25:14;16;14;8
57049;PMS7003;42935;50.966;16.992;2023-05-29T18:28:34;18;12;8
57049;PMS7003;42935;50.966;16.992;2023-05-29T18:31:54;13;12;8
57049;PMS7003;42935;50.966;16.992;2023-05-29T18:35:11;14;11;7
57049;PMS7003;42935;50.966;16.992;2023-05-29T18:38:30;13;11;8
57049;PMS7003;42935;50.966;16.992;2023-05-29T18:41:53;12;10;8
57049;PMS7003;42935;50.966;16.992;2023-05-29T18:45:10;13;11;8
57049;PMS7003;42935;50.966;16.992;2023-05-29T18:48:33;14;10;7
57049;PMS7003;42935;50.966;16.992;2023-05-29T18:51:54;8;7;6
57049;PMS7003;42935;50.966;16.992;2023-05-29T18:55:12;9;8;6
57049;PMS7003;42935;50.966;16.992;2023-05-29T18:58:30;13;10;7
57049;PMS7003;42935;50.966;16.992;2023-05-29T19:01:47;10;9;6
57049;PMS7003;42935;50.966;16.992;2023-05-29T19:05:06;8;7;6
57049;PMS7003;42935;50.966;16.992;2023-05-29T19:08:24;13;8;6
57049;PMS7003;42935;50.966;16.992;2023-05-29T19:11:41;10;7;6
57049;PMS7003;42935;50.966;16.992;2023-05-29T19:14:59;11;10;7
57049;PMS7003;42935;50.966;16.992;2023-05-29T19:18:16;13;11;8
57049;PMS7003;42935;50.966;16.992;2023-05-29T19:21:33;11;8;6
57049;PMS7003;42935;50.966;16.992;2023-05-29T19:24:51;9;9;6
57049;PMS7003;42935;50.966;16.992;2023-05-29T19:28:08;11;9;6
57049;PMS7003;42935;50.966;16.992;2023-05-29T19:31:29;9;9;6
57049;PMS7003;42935;50.966;16.992;2023-05-29T19:34:42;8;8;6
57049;PMS7003;42935;50.966;16.992;2023-05-29T19:37:55;13;9;7
57049;PMS7003;42935;50.966;16.992;2023-05-29T19:41:13;9;9;6
57049;PMS7003;42935;50.966;16.992;2023-05-29T19:44:30;16;9;7
57049;PMS7003;42935;50.966;16.992;2023-05-29T19:47:48;10;8;7
57049;PMS7003;42935;50.966;16.992;2023-05-29T19:51:05;8;7;6
57049;PMS7003;42935;50.966;16.992;2023-05-29T19:54:24;9;8;6
57049;PMS7003;42935;50.966;16.992;2023-05-29T19:57:37;10;8;6
57049;PMS7003;42935;50.966;16.992;2023-05-29T20:00:53;8;7;5
57049;PMS7003;42935;50.966;16.992;2023-05-29T20:04:08;9;6;5
57049;PMS7003;42935;50.966;16.992;2023-05-29T20:07:25;11;9;7
57049;PMS7003;42935;50.966;16.992;2023-05-29T20:10:42;11;10;8
57049;PMS7003;42935;50.966;16.992;2023-05-29T20:14:03;12;9;6
57049;PMS7003;42935;50.966;16.992;2023-05-29T20:17:16;15;11;9
57049;PMS7003;42935;50.966;16.992;2023-05-29T20:20:37;22;18;12
57049;PMS7003;42935;50.966;16.992;2023-05-29T20:24:00;31;24;15
57049;PMS7003;42935;50.966;16.992;2023-05-29T20:27:25;35;29;19
57049;PMS7003;42935;50.966;16.992;2023-05-29T20:30:42;31;22;16
57049;PMS7003;42935;50.966;16.992;2023-05-29T20:33:59;22;18;11
57049;PMS7003;42935;50.966;16.992;2023-05-29T20:37:17;36;27;19
57049;PMS7003;42935;50.966;16.992;2023-05-29T20:40:37;38;29;19
57049;PMS7003;42935;50.966;16.992;2023-05-29T20:43:54;24;22;16
57049;PMS7003;42935;50.966;16.992;2023-05-29T20:47:15;18;17;13
57049;PMS7003;42935;50.966;16.992;2023-05-29T20:50:37;34;26;17
57049;PMS7003;42935;50.966;16.992;2023-05-29T20:54:02;57;40;25
57049;PMS7003;42935;50.966;16.992;2023-05-29T20:57:19;47;33;22
57049;PMS7003;42935;50.966;16.992;2023-05-29T21:00:37;26;20;14
57049;PMS7003;42935;50.966;16.992;2023-05-29T21:03:56;23;19;14
57049;PMS7003;42935;50.966;16.992;2023-05-29T21:07:19;24;21;14
57049;PMS7003;42935;50.966;16.992;2023-05-29T21:10:37;23;18;14
57049;PMS7003;42935;50.966;16.992;2023-05-29T21:13:54;11;10;8
57049;PMS7003;42935;50.966;16.992;2023-05-29T21:17:11;14;12;9
57049;PMS7003;42935;50.966;16.992;2023-05-29T21:20:30;14;12;9
57049;PMS7003;42935;50.966;16.992;2023-05-29T21:23:47;17;14;9
57049;PMS7003;42935;50.966;16.992;2023-05-29T21:27:06;12;10;9
57049;PMS7003;42935;50.966;16.992;2023-05-29T21:30:23;16;13;9
57049;PMS7003;42935;50.966;16.992;2023-05-29T21:33:39;13;11;9
57049;PMS7003;42935;50.966;16.992;2023-05-29T21:36:57;13;11;9
57049;PMS7003;42935;50.966;16.992;2023-05-29T21:40:18;17;13;9
57049;PMS7003;42935;50.966;16.992;2023-05-29T21:43:40;15;12;9
57049;PMS7003;42935;50.966;16.992;2023-05-29T21:46:59;15;12;10
57049;PMS7003;42935;50.966;16.992;2023-05-29T21:50:21;14;12;9
57049;PMS7003;42935;50.966;16.992;2023-05-29T21:53:38;17;13;9
57049;PMS7003;42935;50.966;16.992;2023-05-29T21:56:55;13;12;9
57049;PMS7003;42935;50.966;16.992;2023-05-29T22:00:11;14;12;9
57049;PMS7003;42935;50.966;16.992;2023-05-29T22:03:26;12;11;9
57049;PMS7003;42935;50.966;16.992;2023-05-29T22:06:49;17;13;9
57049;PMS7003;42935;50.966;16.992;2023-05-29T22:10:07;17;15;10
57049;PMS7003;42935;50.966;16.992;2023-05-29T22:13:24;13;11;9
57049;PMS7003;42935;50.966;16.992;2023-05-29T22:16:40;13;12;8
57049;PMS7003;42935;50.966;16.992;2023-05-29T22:19:53;14;12;8
57049;PMS7003;42935;50.966;16.992;2023-05-29T22:23:10;15;11;9
57049;PMS7003;42935;50.966;16.992;2023-05-29T22:26:24;11;10;8
57049;PMS7003;42935;50.966;16.992;2023-05-29T22:29:45;11;9;7
57049;PMS7003;42935;50.966;16.992;2023-05-29T22:33:04;13;10;8